createdAt,value
2022-09-28T00:00:42.643Z,77.28
2022-09-28T00:03:09.600Z,83.90
2022-09-28T00:05:36.337Z,73.65
2022-09-28T00:08:03.139Z,77.55
2022-09-28T00:10:29.959Z,72.80
2022-09-28T00:12:56.745Z,73.05
2022-09-28T00:15:24.783Z,63.78
2022-09-28T00:17:51.520Z,61.85
2022-09-28T00:20:19.442Z,63.55
2022-09-28T00:22:46.293Z,64.40
2022-09-28T00:25:13.067Z,68.13
2022-09-28T00:27:40.287Z,65.43
2022-09-28T00:30:07.931Z,76.55
2022-09-28T00:32:34.753Z,73.10
2022-09-28T00:35:01.538Z,72.15
2022-09-28T00:37:28.254Z,71.80
2022-09-28T00:39:54.993Z,68.88
2022-09-28T00:42:24.891Z,70.03
2022-09-28T00:44:56.210Z,65.80
2022-09-28T00:47:41.927Z,70.93
2022-09-28T00:50:13.059Z,67.35
2022-09-28T00:52:45.986Z,67.82
2022-09-28T00:55:21.724Z,67.90
2022-09-28T00:57:53.738Z,70.22
2022-09-28T01:00:20.771Z,69.45
2022-09-28T01:02:48.382Z,63.40
2022-09-28T01:05:18.365Z,63.35
2022-09-28T01:07:46.910Z,64.38
2022-09-28T01:10:14.316Z,60.10
2022-09-28T01:12:41.167Z,61.65
2022-09-28T01:15:08.478Z,71.20
2022-09-28T01:17:58.393Z,66.18
2022-09-28T01:20:39.937Z,53.63
2022-09-28T01:23:37.572Z,59.08
2022-09-28T01:26:44.015Z,69.18
2022-09-28T01:29:17.042Z,64.30
2022-09-28T01:31:49.804Z,71.00
2022-09-28T01:36:50.735Z,63.90
2022-09-28T01:39:27.788Z,66.93
2022-09-28T01:42:01.201Z,70.07
2022-09-28T01:44:31.435Z,69.00
2022-09-28T01:47:04.266Z,64.07
2022-09-28T01:49:42.839Z,64.15
2022-09-28T01:52:27.973Z,67.97
2022-09-28T01:55:01.482Z,64.10
2022-09-28T01:57:39.440Z,64.28
2022-09-28T02:00:08.637Z,61.15
2022-09-28T02:03:06.852Z,61.13
2022-09-28T02:05:49.698Z,54.60
2022-09-28T02:08:29.029Z,61.60
2022-09-28T02:11:06.054Z,62.78
2022-09-28T02:13:53.776Z,68.00
2022-09-28T02:16:30.030Z,72.15
2022-09-28T02:18:57.462Z,63.92
2022-09-28T02:21:29.752Z,63.47
2022-09-28T02:24:01.540Z,65.18
2022-09-28T02:26:35.586Z,61.25
2022-09-28T02:29:02.414Z,60.05
2022-09-28T02:31:29.255Z,62.95
2022-09-28T02:33:57.574Z,61.70
2022-09-28T02:36:26.715Z,58.80
2022-09-28T02:38:53.826Z,54.58
2022-09-28T02:41:26.369Z,60.13
2022-09-28T02:44:16.408Z,58.67
2022-09-28T02:46:55.761Z,56.30
2022-09-28T02:50:09.638Z,53.08
2022-09-28T02:53:03.839Z,56.00
2022-09-28T02:55:40.516Z,48.80
2022-09-28T02:58:25.693Z,51.85
2022-09-28T03:01:02.637Z,47.70
2022-09-28T03:03:50.621Z,46.63
2022-09-28T03:06:30.864Z,46.63
2022-09-28T03:09:04.755Z,45.90
2022-09-28T03:11:39.737Z,46.38
2022-09-28T03:16:46.369Z,42.92
2022-09-28T03:19:14.408Z,48.42
2022-09-28T03:21:41.404Z,45.10
2022-09-28T03:24:10.615Z,46.88
2022-09-28T03:26:38.980Z,51.50
2022-09-28T03:29:06.646Z,42.67
2022-09-28T03:31:35.217Z,46.65
2022-09-28T03:34:02.434Z,42.83
2022-09-28T03:36:29.363Z,40.65
2022-09-28T03:38:56.429Z,41.50
2022-09-28T03:41:25.030Z,44.80
2022-09-28T03:43:51.789Z,42.45
2022-09-28T03:46:18.809Z,41.00
2022-09-28T03:48:49.725Z,47.95
2022-09-28T03:51:16.485Z,42.50
2022-09-28T03:53:43.375Z,59.28
2022-09-28T03:56:13.842Z,52.17
2022-09-28T03:58:42.327Z,49.58
2022-09-28T04:01:16.935Z,53.90
2022-09-28T04:03:46.235Z,46.22
2022-09-28T04:06:14.029Z,53.38
2022-09-28T04:08:40.957Z,56.58
2022-09-28T04:11:08.577Z,47.85
2022-09-28T04:13:35.494Z,51.47
2022-09-28T04:16:02.460Z,48.95
2022-09-28T04:18:33.435Z,48.50
2022-09-28T04:21:23.357Z,44.40
2022-09-28T04:23:55.856Z,41.90
2022-09-28T04:26:25.106Z,43.75
2022-09-28T04:29:10.650Z,41.47
2022-09-28T04:31:53.509Z,39.17
2022-09-28T04:34:23.623Z,42.28
2022-09-28T04:36:51.186Z,41.05
2022-09-28T04:39:21.603Z,37.78
2022-09-28T04:41:51.555Z,40.65
2022-09-28T04:44:18.838Z,42.35
2022-09-28T04:46:47.266Z,40.92
2022-09-28T04:49:29.529Z,38.30
2022-09-28T04:52:06.938Z,43.20
2022-09-28T04:54:34.788Z,41.65
2022-09-28T04:57:03.380Z,39.60
2022-09-28T04:59:30.300Z,41.47
2022-09-28T05:01:57.351Z,40.25
2022-09-28T05:04:39.386Z,39.80
2022-09-28T05:07:20.233Z,43.78
2022-09-28T05:09:46.991Z,44.35
2022-09-28T05:12:15.086Z,41.38
2022-09-28T05:14:42.103Z,40.35
2022-09-28T05:17:10.294Z,38.90
2022-09-28T05:19:57.432Z,35.00
2022-09-28T05:22:24.264Z,34.05
2022-09-28T05:24:51.809Z,32.47
2022-09-28T05:27:18.551Z,33.13
2022-09-28T05:29:52.437Z,32.08
2022-09-28T05:32:44.375Z,26.48
2022-09-28T05:35:18.839Z,27.77
2022-09-28T05:37:47.531Z,29.70
2022-09-28T05:40:14.791Z,26.23
2022-09-28T05:42:42.248Z,28.73
2022-09-28T05:45:10.209Z,23.52
2022-09-28T05:47:43.751Z,25.52
2022-09-28T05:50:11.991Z,24.13
2022-09-28T05:52:39.615Z,24.23
2022-09-28T05:55:08.027Z,21.27
2022-09-28T05:57:35.045Z,23.85
2022-09-28T06:00:06.024Z,21.88
2022-09-28T06:02:39.303Z,23.23
2022-09-28T06:05:08.695Z,20.42
2022-09-28T06:07:35.638Z,23.80
2022-09-28T06:10:02.906Z,20.38
2022-09-28T06:12:39.860Z,21.33
2022-09-28T06:15:12.338Z,21.90
2022-09-28T06:17:39.812Z,20.23
2022-09-28T06:20:26.900Z,19.10
2022-09-28T06:23:07.901Z,20.73
2022-09-28T06:25:34.761Z,22.50
2022-09-28T06:28:05.083Z,20.75
2022-09-28T06:30:34.688Z,22.27
2022-09-28T06:33:02.578Z,18.88
2022-09-28T06:35:30.979Z,23.30
2022-09-28T06:37:59.952Z,21.05
2022-09-28T06:40:28.086Z,20.80
2022-09-28T06:43:00.383Z,19.10
2022-09-28T06:45:52.326Z,22.85
2022-09-28T06:48:42.941Z,22.05
2022-09-28T06:51:12.670Z,23.45
2022-09-28T06:53:53.963Z,22.77
2022-09-28T06:56:41.017Z,22.92
2022-09-28T06:59:07.775Z,23.05
2022-09-28T07:01:36.291Z,20.20
2022-09-28T07:04:42.038Z,23.90
2022-09-28T07:07:31.875Z,23.42
2022-09-28T07:10:11.423Z,24.05
2022-09-28T07:12:44.376Z,23.40
2022-09-28T07:15:32.539Z,25.80
2022-09-28T07:18:03.558Z,22.95
2022-09-28T07:20:38.720Z,25.33
2022-09-28T07:23:19.228Z,25.10
2022-09-28T07:26:25.691Z,23.00
2022-09-28T07:29:18.922Z,20.08
2022-09-28T07:32:17.656Z,21.58
2022-09-28T07:34:58.919Z,21.75
2022-09-28T07:38:00.588Z,22.33
2022-09-28T07:40:48.450Z,21.60
2022-09-28T07:43:20.778Z,26.30
2022-09-28T07:45:52.600Z,24.17
2022-09-28T07:48:20.144Z,22.92
2022-09-28T07:51:25.331Z,27.02
2022-09-28T07:54:10.775Z,24.85
2022-09-28T07:56:44.307Z,22.90
2022-09-28T07:59:26.982Z,22.85
2022-09-28T08:02:20.571Z,23.60
2022-09-28T08:04:48.621Z,25.48
2022-09-28T08:07:20.480Z,22.50
2022-09-28T08:09:55.376Z,23.13
2022-09-28T08:12:27.723Z,23.67
2022-09-28T08:15:13.475Z,26.02
2022-09-28T08:17:59.089Z,24.88
2022-09-28T08:20:51.325Z,22.05
2022-09-28T08:23:19.810Z,24.10
2022-09-28T08:25:52.646Z,21.92
2022-09-28T08:28:20.222Z,22.00
2022-09-28T08:30:49.108Z,24.00
2022-09-28T08:33:42.203Z,23.27
2022-09-28T08:36:28.467Z,24.13
2022-09-28T08:39:01.307Z,26.23
2022-09-28T08:41:37.002Z,24.48
2022-09-28T08:44:26.896Z,24.95
2022-09-28T08:47:59.534Z,19.60
2022-09-28T08:50:49.489Z,23.25
2022-09-28T08:53:27.398Z,21.45
2022-09-28T08:56:37.992Z,18.40
2022-09-28T08:59:12.716Z,18.98
2022-09-28T09:02:03.566Z,19.85
2022-09-28T09:04:33.689Z,21.35
2022-09-28T09:07:58.358Z,22.40
2022-09-28T09:10:42.688Z,18.23
2022-09-28T09:13:37.251Z,18.48
2022-09-28T09:16:19.890Z,19.73
2022-09-28T09:19:20.413Z,19.40
2022-09-28T09:22:17.949Z,19.52
2022-09-28T09:24:54.809Z,21.48
2022-09-28T09:27:37.661Z,19.65
2022-09-28T09:32:53.473Z,22.30
2022-09-28T09:35:38.854Z,22.33
2022-09-28T09:38:55.967Z,20.58
2022-09-28T09:41:57.446Z,20.85
2022-09-28T09:45:17.133Z,19.38
2022-09-28T09:48:14.432Z,18.88
2022-09-28T09:51:23.821Z,15.85
2022-09-28T09:54:04.566Z,16.95
2022-09-28T09:56:37.199Z,16.30
2022-09-28T09:59:24.508Z,16.33
2022-09-28T10:02:28.608Z,16.30
2022-09-28T10:05:24.216Z,15.25
2022-09-28T10:08:03.204Z,16.88
2022-09-28T10:10:35.430Z,16.67
2022-09-28T10:13:21.071Z,16.33
2022-09-28T10:15:50.530Z,15.52
2022-09-28T10:18:28.848Z,15.07
2022-09-28T10:21:15.824Z,15.02
2022-09-28T10:23:55.250Z,15.90
2022-09-28T10:26:37.487Z,14.50
2022-09-28T10:29:14.743Z,12.82
2022-09-28T10:31:51.543Z,12.98
2022-09-28T10:34:38.519Z,19.02
2022-09-28T10:37:15.350Z,14.95
2022-09-28T10:40:05.808Z,12.70
2022-09-28T10:42:36.243Z,13.07
2022-09-28T10:45:18.832Z,14.07
2022-09-28T10:47:46.423Z,15.43
2022-09-28T10:50:24.596Z,11.82
2022-09-28T10:53:19.938Z,14.60
2022-09-28T10:56:20.192Z,11.82
2022-09-28T10:58:48.980Z,13.23
2022-09-28T11:01:31.076Z,12.95
2022-09-28T11:04:01.218Z,13.88
2022-09-28T11:06:36.194Z,12.73
2022-09-28T11:09:21.074Z,16.02
2022-09-28T11:11:48.204Z,11.95
2022-09-28T11:14:43.624Z,14.32
2022-09-28T11:17:17.281Z,13.13
2022-09-28T11:19:45.883Z,14.90
2022-09-28T11:22:29.191Z,16.85
2022-09-28T11:25:33.265Z,16.15
2022-09-28T11:28:04.617Z,13.52
2022-09-28T11:30:54.277Z,12.85
2022-09-28T11:33:36.749Z,15.75
2022-09-28T11:36:45.375Z,15.20
2022-09-28T11:39:37.350Z,14.57
2022-09-28T11:42:16.732Z,13.73
2022-09-28T11:44:47.082Z,14.25
2022-09-28T11:47:21.036Z,15.20
2022-09-28T11:49:57.503Z,14.63
2022-09-28T11:52:27.709Z,15.48
2022-09-28T11:55:02.425Z,14.35
2022-09-28T11:57:36.590Z,15.80
2022-09-28T12:00:20.822Z,15.75
2022-09-28T12:03:07.246Z,18.55
2022-09-28T12:05:40.491Z,16.85
2022-09-28T12:08:28.991Z,19.33
2022-09-28T12:11:11.107Z,17.65
2022-09-28T12:14:00.900Z,20.35
2022-09-28T12:17:05.890Z,19.80
2022-09-28T12:19:44.338Z,19.98
2022-09-28T12:22:21.055Z,23.33
2022-09-28T12:24:52.749Z,21.95
2022-09-28T12:27:28.436Z,20.38
2022-09-28T12:29:55.253Z,22.17
2022-09-28T12:32:28.669Z,23.90
2022-09-28T12:34:56.827Z,22.23
2022-09-28T12:37:40.338Z,23.88
2022-09-28T12:40:22.630Z,22.90
2022-09-28T12:43:17.698Z,24.20
2022-09-28T12:46:11.418Z,23.83
2022-09-28T12:48:58.416Z,27.30
2022-09-28T12:51:54.548Z,23.80
2022-09-28T12:54:42.993Z,24.10
2022-09-28T12:57:34.689Z,25.92
2022-09-28T13:00:26.092Z,27.02
2022-09-28T13:03:31.714Z,26.55
2022-09-28T13:06:07.770Z,22.48
2022-09-28T13:08:55.267Z,24.23
2022-09-28T13:11:22.092Z,24.05
2022-09-28T13:14:13.505Z,23.45
2022-09-28T13:17:03.180Z,26.83
2022-09-28T13:19:36.279Z,21.80
2022-09-28T13:22:24.561Z,26.05
2022-09-28T13:24:55.391Z,22.30
2022-09-28T13:27:46.208Z,26.25
2022-09-28T13:30:15.034Z,23.17
2022-09-28T13:32:44.180Z,23.83
2022-09-28T13:35:21.734Z,23.77
2022-09-28T13:38:17.687Z,22.10
2022-09-28T13:41:06.338Z,23.13
2022-09-28T13:44:00.742Z,26.10
2022-09-28T13:46:40.436Z,22.27
2022-09-28T13:49:49.350Z,18.20
2022-09-28T13:52:54.881Z,21.52
2022-09-28T13:55:24.992Z,25.92
2022-09-28T13:58:00.794Z,23.15
2022-09-28T14:00:47.072Z,23.75
2022-09-28T14:03:27.192Z,23.50
2022-09-28T14:06:00.787Z,23.40
2022-09-28T14:08:58.272Z,23.98
2022-09-28T14:11:42.594Z,25.92
2022-09-28T14:14:13.810Z,26.38
2022-09-28T14:16:44.378Z,27.08
2022-09-28T14:19:14.234Z,28.40
2022-09-28T14:21:56.104Z,24.52
2022-09-28T14:24:45.156Z,27.50
2022-09-28T14:27:23.990Z,26.52
2022-09-28T14:30:05.301Z,28.77
2022-09-28T14:32:37.077Z,30.70
2022-09-28T14:35:07.494Z,26.70
2022-09-28T14:37:56.435Z,28.55
2022-09-28T14:40:49.745Z,26.45
2022-09-28T14:43:35.038Z,23.48
2022-09-28T14:46:11.354Z,25.95
2022-09-28T14:48:57.219Z,22.73
2022-09-28T14:51:26.774Z,23.33
2022-09-28T14:53:56.543Z,25.08
2022-09-28T14:56:25.466Z,29.98
2022-09-28T14:58:58.153Z,28.88
2022-09-28T15:01:26.120Z,27.40
2022-09-28T15:03:56.135Z,30.88
2022-09-28T15:06:24.259Z,30.77
2022-09-28T15:08:51.294Z,32.75
2022-09-28T15:11:27.441Z,30.95
2022-09-28T15:14:06.423Z,29.85
2022-09-28T15:16:33.796Z,29.80
2022-09-28T15:19:10.467Z,32.63
2022-09-28T15:21:40.542Z,33.25
2022-09-28T15:24:28.880Z,31.17
2022-09-28T15:26:56.895Z,30.92
2022-09-28T15:29:25.843Z,31.05
2022-09-28T15:31:54.662Z,27.33
2022-09-28T15:34:46.137Z,31.88
2022-09-28T15:37:16.714Z,36.67
2022-09-28T15:39:44.565Z,33.72
2022-09-28T15:42:11.506Z,36.78
2022-09-28T15:44:39.655Z,32.63
2022-09-28T15:47:16.779Z,38.80
2022-09-28T15:49:53.259Z,34.35
2022-09-28T15:52:26.251Z,34.72
2022-09-28T15:54:54.193Z,38.03
2022-09-28T15:57:29.947Z,37.80
2022-09-28T15:59:59.353Z,35.80
2022-09-28T16:02:27.284Z,33.60
2022-09-28T16:05:00.803Z,38.85
2022-09-28T16:07:56.786Z,35.70
2022-09-28T16:10:35.119Z,19.30
2022-09-28T16:13:23.269Z,15.98
2022-09-28T16:16:00.307Z,10.13
2022-09-28T16:18:29.822Z,6.00
2022-09-28T16:21:24.656Z,5.85
2022-09-28T16:23:55.702Z,6.90
2022-09-28T16:26:33.078Z,7.20
2022-09-28T16:29:00.754Z,5.70
2022-09-28T16:31:33.815Z,6.13
2022-09-28T16:34:09.579Z,5.90
2022-09-28T16:36:46.194Z,4.80
2022-09-28T16:39:16.978Z,5.22
2022-09-28T16:41:48.352Z,5.78
2022-09-28T16:44:21.305Z,6.15
2022-09-28T16:46:48.205Z,8.32
2022-09-28T16:49:20.146Z,6.90
2022-09-28T16:51:47.887Z,7.05
2022-09-28T16:54:37.103Z,6.68
2022-09-28T16:57:06.106Z,7.20
2022-09-28T16:59:32.971Z,6.85
2022-09-28T17:01:59.845Z,11.52
2022-09-28T17:04:27.155Z,6.28
2022-09-28T17:06:55.640Z,7.55
2022-09-28T17:09:23.368Z,6.00
2022-09-28T17:11:56.739Z,6.25
2022-09-28T17:14:24.300Z,7.72
2022-09-28T17:17:13.756Z,5.43
2022-09-28T17:19:40.919Z,6.80
2022-09-28T17:22:09.267Z,8.68
2022-09-28T17:24:36.574Z,6.57
2022-09-28T17:27:03.883Z,7.40
2022-09-28T17:29:30.650Z,6.72
2022-09-28T17:31:57.447Z,7.85
2022-09-28T17:34:24.322Z,8.77
2022-09-28T17:36:51.995Z,8.00
2022-09-28T17:39:19.356Z,6.70
2022-09-28T17:41:46.262Z,6.47
2022-09-28T17:44:16.254Z,7.63
2022-09-28T17:46:46.364Z,9.85
2022-09-28T17:49:14.006Z,7.65
2022-09-28T17:51:40.887Z,6.05
2022-09-28T17:54:08.894Z,12.48
2022-09-28T17:56:36.794Z,6.15
2022-09-28T17:59:10.367Z,6.63
2022-09-28T18:01:39.371Z,7.30
2022-09-28T18:04:08.982Z,8.35
2022-09-28T18:06:37.401Z,8.02
2022-09-28T18:09:05.835Z,9.80
2022-09-28T18:11:33.862Z,9.23
2022-09-28T18:14:00.881Z,9.15
2022-09-28T18:16:28.937Z,8.73
2022-09-28T18:18:56.790Z,11.27
2022-09-28T18:21:23.887Z,11.77
2022-09-28T18:23:50.651Z,14.85
2022-09-28T18:26:19.867Z,9.95
2022-09-28T18:28:47.303Z,10.70
2022-09-28T18:31:15.894Z,10.13
2022-09-28T18:33:50.371Z,15.85
2022-09-28T18:36:17.346Z,13.55
2022-09-28T18:38:44.262Z,12.73
2022-09-28T18:41:15.740Z,15.27
2022-09-28T18:43:51.349Z,13.88
2022-09-28T18:46:18.504Z,14.07
2022-09-28T18:48:47.505Z,19.33
2022-09-28T18:51:14.561Z,14.77
2022-09-28T18:53:41.354Z,16.95
2022-09-28T18:56:11.017Z,16.15
2022-09-28T18:58:39.240Z,15.85
2022-09-28T19:04:00.572Z,16.50
2022-09-28T19:06:27.817Z,17.92
2022-09-28T19:08:57.830Z,17.25
2022-09-28T19:11:25.600Z,19.20
2022-09-28T19:13:54.448Z,22.45
2022-09-28T19:16:24.211Z,23.65
2022-09-28T19:18:53.711Z,24.13
2022-09-28T19:21:21.087Z,19.48
2022-09-28T19:23:53.652Z,25.30
2022-09-28T19:26:23.129Z,22.73
2022-09-28T19:28:50.524Z,28.63
2022-09-28T19:31:17.484Z,27.38
2022-09-28T19:33:48.165Z,25.08
2022-09-28T19:36:18.522Z,23.77
2022-09-28T19:38:45.959Z,25.90
2022-09-28T19:41:39.299Z,25.42
2022-09-28T19:44:10.447Z,27.77
2022-09-28T19:46:39.038Z,26.83
2022-09-28T19:49:11.419Z,25.55
2022-09-28T19:51:51.446Z,34.15
2022-09-28T19:54:33.124Z,28.50
2022-09-28T19:57:07.831Z,30.17
2022-09-28T19:59:36.722Z,31.52
2022-09-28T20:02:05.614Z,29.20
2022-09-28T20:04:32.377Z,33.92
2022-09-28T20:06:59.097Z,29.38
2022-09-28T20:09:25.892Z,27.92
2022-09-28T20:11:53.161Z,32.20
2022-09-28T20:14:21.445Z,28.10
2022-09-28T20:16:50.231Z,29.92
2022-09-28T20:19:19.111Z,143.95
2022-09-28T20:21:48.120Z,29.70
2022-09-28T20:24:16.779Z,27.30
2022-09-28T20:26:44.674Z,25.67
2022-09-28T20:29:11.898Z,33.50
2022-09-28T20:31:38.743Z,176.77
2022-09-28T20:34:06.513Z,86.32
2022-09-28T20:36:33.626Z,34.67
2022-09-28T20:39:04.089Z,37.88
2022-09-28T20:41:36.661Z,31.73
2022-09-28T20:46:34.801Z,26.77
2022-09-28T20:49:02.207Z,34.42
2022-09-28T20:51:28.974Z,196.48
2022-09-28T20:53:57.201Z,329.25
2022-09-28T20:56:37.549Z,140.38
2022-09-28T20:59:07.626Z,53.22
2022-09-28T21:01:35.340Z,87.38
2022-09-28T21:04:04.664Z,26.23
2022-09-28T21:06:34.215Z,35.88
2022-09-28T21:09:01.309Z,31.90
2022-09-28T21:11:29.603Z,55.22
2022-09-28T21:13:59.368Z,294.38
2022-09-28T21:16:28.258Z,374.33
2022-09-28T21:18:55.050Z,240.65
2022-09-28T21:21:23.096Z,39.75
2022-09-28T21:23:54.055Z,37.65
2022-09-28T21:26:26.578Z,40.83
2022-09-28T21:28:58.150Z,326.00
2022-09-28T21:31:29.435Z,488.30
2022-09-28T21:33:57.376Z,485.17
2022-09-28T21:36:25.151Z,284.80
2022-09-28T21:38:52.138Z,313.35
2022-09-28T21:41:18.812Z,281.30
2022-09-28T21:43:45.797Z,389.17
2022-09-28T21:46:12.870Z,344.70
2022-09-28T21:48:39.779Z,347.98
2022-09-28T21:51:09.224Z,333.63
2022-09-28T21:53:37.876Z,350.77
2022-09-28T21:56:07.142Z,300.75
2022-09-28T21:58:35.692Z,257.25
2022-09-28T22:01:34.860Z,314.48
2022-09-28T22:04:01.676Z,237.02
2022-09-28T22:06:28.437Z,294.55
2022-09-28T22:08:55.699Z,270.48
2022-09-28T22:11:25.565Z,216.88
2022-09-28T22:13:57.551Z,46.88
2022-09-28T22:16:27.648Z,42.08
2022-09-28T22:18:54.707Z,38.60
2022-09-28T22:21:26.724Z,57.75
2022-09-28T22:23:53.917Z,34.83
2022-09-28T22:26:23.543Z,277.50
2022-09-28T22:29:08.174Z,213.40
2022-09-28T22:31:37.858Z,326.60
2022-09-28T22:34:05.322Z,357.92
2022-09-28T22:36:32.459Z,451.63
2022-09-28T22:38:59.827Z,324.90
2022-09-28T22:41:27.186Z,278.40
2022-09-28T22:43:55.139Z,180.35
2022-09-28T22:46:25.136Z,166.90
2022-09-28T22:48:57.493Z,158.57
2022-09-28T22:51:26.600Z,177.45
2022-09-28T22:53:53.411Z,57.70
2022-09-28T22:56:20.353Z,115.72
2022-09-28T22:58:47.201Z,159.68
2022-09-28T23:01:15.415Z,68.50
2022-09-28T23:03:42.639Z,70.47
2022-09-28T23:06:10.898Z,37.72
2022-09-28T23:08:38.354Z,145.60
2022-09-28T23:11:06.196Z,60.95
2022-09-28T23:13:33.262Z,62.40
2022-09-28T23:16:05.675Z,44.42
2022-09-28T23:18:35.957Z,38.38
2022-09-28T23:21:05.769Z,155.40
2022-09-28T23:23:33.335Z,36.83
2022-09-28T23:26:09.489Z,66.45
2022-09-28T23:28:36.218Z,37.45
2022-09-28T23:31:11.229Z,34.42
2022-09-28T23:33:38.080Z,35.53
2022-09-28T23:36:05.076Z,69.53
2022-09-28T23:38:31.825Z,20.73
2022-09-28T23:40:58.591Z,21.60
2022-09-28T23:43:25.412Z,23.23
2022-09-28T23:45:52.099Z,25.33
2022-09-28T23:48:18.835Z,46.85
2022-09-28T23:50:45.774Z,97.85
2022-09-28T23:53:14.290Z,123.95
2022-09-28T23:55:42.975Z,144.88
2022-09-28T23:58:10.649Z,157.90
